Terminal Aerodrome Forecast
Issued by NWS

Home | Current Version | Previous Version | Text Only | Print | Product List | Glossary On
Versions: 1 2 3 4 5 6 7 8 9 10 11 12 13 14 15 16 17 18 19 20 21 22 23
154
FTUS43 KGRR 110321 AAA
TAFJXN
TAF AMD
KJXN 110321Z 1103/1124 20006KT P6SM OVC100
     FM110430 20005KT 3SM -SN BR OVC025
     FM110600 18007KT 1SM -SN BR OVC012
     FM111200 16011KT 3/4SM -SN BR OVC009
     FM111500 17011KT 1/2SM SN FG OVC005=

USA.gov is the U.S. government's official web portal to all federal, state and local government web resources and services.